createdAt,value
2022-08-31T00:00:39.397Z,3.42
2022-08-31T00:03:25.390Z,4.25
2022-08-31T00:05:57.482Z,2.88
2022-08-31T00:08:24.415Z,3.05
2022-08-31T00:10:50.993Z,7.80
2022-08-31T00:13:18.156Z,2.78
2022-08-31T00:15:44.978Z,6.32
2022-08-31T00:18:11.673Z,3.63
2022-08-31T00:20:38.872Z,3.60
2022-08-31T00:23:07.384Z,5.35
2022-08-31T00:25:35.061Z,3.33
2022-08-31T00:28:02.278Z,10.82
2022-08-31T00:30:29.422Z,5.18
2022-08-31T00:32:57.078Z,4.53
2022-08-31T00:35:31.066Z,5.40
2022-08-31T00:37:57.742Z,5.38
2022-08-31T00:40:25.651Z,2.90
2022-08-31T00:42:53.126Z,5.40
2022-08-31T00:45:20.161Z,5.75
2022-08-31T00:47:46.913Z,6.75
2022-08-31T00:50:16.490Z,2.15
2022-08-31T00:52:48.279Z,5.85
2022-08-31T00:55:33.807Z,5.38
2022-08-31T00:58:07.152Z,4.00
2022-08-31T01:00:34.381Z,3.20
2022-08-31T01:03:09.667Z,7.90
2022-08-31T01:05:38.074Z,2.90
2022-08-31T01:08:06.013Z,4.10
2022-08-31T01:10:36.459Z,3.10
2022-08-31T01:13:03.579Z,4.82
2022-08-31T01:15:31.183Z,9.18
2022-08-31T01:18:01.645Z,6.38
2022-08-31T01:20:37.066Z,9.10
2022-08-31T01:23:22.010Z,6.90
2022-08-31T01:25:49.769Z,6.07
2022-08-31T01:28:16.552Z,3.92
2022-08-31T01:30:44.351Z,3.50
2022-08-31T01:33:13.235Z,4.82
2022-08-31T01:35:44.941Z,5.45
2022-08-31T01:38:13.170Z,8.90
2022-08-31T01:40:49.574Z,3.63
2022-08-31T01:43:18.691Z,3.63
2022-08-31T01:45:45.237Z,4.40
2022-08-31T01:48:14.263Z,4.35
2022-08-31T01:50:40.796Z,3.80
2022-08-31T01:53:07.855Z,4.75
2022-08-31T01:55:36.734Z,3.78
2022-08-31T01:58:03.863Z,5.35
2022-08-31T02:00:31.148Z,7.15
2022-08-31T02:03:00.419Z,5.90
2022-08-31T02:05:28.221Z,4.90
2022-08-31T02:07:56.048Z,4.60
2022-08-31T02:10:23.896Z,3.90
2022-08-31T02:12:50.343Z,8.82
2022-08-31T02:15:17.079Z,9.07
2022-08-31T02:17:45.912Z,3.38
2022-08-31T02:20:13.884Z,4.53
2022-08-31T02:22:40.648Z,6.32
2022-08-31T02:25:09.391Z,7.18
2022-08-31T02:27:37.041Z,6.57
2022-08-31T02:30:10.761Z,3.85
2022-08-31T02:32:37.278Z,4.38
2022-08-31T02:35:07.290Z,12.30
2022-08-31T02:37:33.913Z,4.38
2022-08-31T02:40:01.959Z,6.43
2022-08-31T02:42:37.927Z,7.35
2022-08-31T02:45:16.612Z,3.92
2022-08-31T02:47:47.626Z,4.50
2022-08-31T02:50:14.203Z,6.43
2022-08-31T02:52:40.696Z,3.47
2022-08-31T02:55:08.009Z,6.15
2022-08-31T02:57:34.400Z,9.10
2022-08-31T03:00:00.852Z,7.93
2022-08-31T03:02:32.080Z,5.68
2022-08-31T03:05:01.524Z,4.47
2022-08-31T03:07:27.972Z,3.53
2022-08-31T03:09:54.424Z,3.70
2022-08-31T03:12:23.443Z,3.05
2022-08-31T03:14:49.930Z,4.32
2022-08-31T03:17:16.334Z,4.43
2022-08-31T03:19:42.767Z,7.40
2022-08-31T03:22:09.234Z,8.23
2022-08-31T03:24:35.652Z,4.35
2022-08-31T03:27:02.198Z,3.45
2022-08-31T03:29:31.286Z,3.15
2022-08-31T03:31:57.794Z,7.72
2022-08-31T03:34:24.386Z,5.03
2022-08-31T03:36:50.866Z,4.10
2022-08-31T03:39:17.279Z,4.68
2022-08-31T03:41:43.826Z,3.17
2022-08-31T03:44:10.250Z,6.22
2022-08-31T03:46:44.362Z,4.20
2022-08-31T03:49:12.342Z,3.83
2022-08-31T03:51:38.734Z,4.57
2022-08-31T03:54:05.232Z,3.20
2022-08-31T03:56:31.634Z,5.13
2022-08-31T03:58:58.027Z,3.50
2022-08-31T04:01:27.180Z,3.55
2022-08-31T04:03:53.690Z,3.08
2022-08-31T04:06:22.372Z,4.72
2022-08-31T04:08:48.761Z,3.15
2022-08-31T04:11:20.115Z,5.15
2022-08-31T04:13:59.828Z,7.97
2022-08-31T04:16:26.557Z,3.40
2022-08-31T04:18:53.112Z,4.68
2022-08-31T04:21:24.270Z,5.32
2022-08-31T04:23:52.312Z,4.78
2022-08-31T04:26:30.859Z,3.88
2022-08-31T04:29:03.909Z,4.60
2022-08-31T04:31:30.526Z,9.57
2022-08-31T04:34:00.413Z,4.68
2022-08-31T04:36:29.699Z,5.55
2022-08-31T04:38:59.213Z,4.18
2022-08-31T04:41:27.589Z,5.38
2022-08-31T04:43:58.618Z,5.55
2022-08-31T04:46:25.790Z,5.33
2022-08-31T04:48:53.204Z,7.00
2022-08-31T04:51:26.789Z,7.63
2022-08-31T04:53:54.270Z,5.28
2022-08-31T04:56:28.142Z,6.82
2022-08-31T04:59:01.623Z,7.53
2022-08-31T05:01:36.236Z,7.78
2022-08-31T05:04:12.675Z,4.33
2022-08-31T05:06:42.079Z,4.82
2022-08-31T05:09:11.770Z,7.10
2022-08-31T05:11:39.740Z,5.45
2022-08-31T05:14:07.233Z,10.75
2022-08-31T05:16:34.399Z,9.02
2022-08-31T05:19:01.801Z,6.15
2022-08-31T05:21:31.805Z,5.60
2022-08-31T05:24:05.557Z,17.40
2022-08-31T05:26:41.918Z,5.70
2022-08-31T05:29:15.894Z,16.67
2022-08-31T05:31:44.983Z,8.32
2022-08-31T05:34:17.618Z,4.43
2022-08-31T05:36:48.830Z,4.35
2022-08-31T05:39:17.932Z,5.30
2022-08-31T05:41:48.858Z,6.78
2022-08-31T05:44:16.387Z,5.03
2022-08-31T05:46:43.028Z,6.22
2022-08-31T05:49:10.229Z,4.07
2022-08-31T05:51:38.689Z,7.70
2022-08-31T05:54:10.671Z,6.95
2022-08-31T05:56:40.082Z,5.40
2022-08-31T05:59:06.739Z,7.65
2022-08-31T06:01:39.123Z,5.05
2022-08-31T06:04:07.061Z,4.75
2022-08-31T06:06:33.966Z,6.50
2022-08-31T06:09:00.600Z,7.03
2022-08-31T06:11:30.285Z,11.70
2022-08-31T06:14:01.581Z,6.40
2022-08-31T06:16:30.230Z,6.05
2022-08-31T06:18:58.298Z,5.05
2022-08-31T06:21:30.841Z,6.95
2022-08-31T06:23:59.954Z,7.55
2022-08-31T06:26:31.294Z,7.35
2022-08-31T06:29:00.436Z,12.70
2022-08-31T06:31:41.681Z,4.45
2022-08-31T06:34:08.236Z,6.20
2022-08-31T06:36:35.369Z,4.72
2022-08-31T06:39:03.254Z,4.35
2022-08-31T06:41:36.943Z,8.00
2022-08-31T06:44:07.497Z,14.73
2022-08-31T06:46:39.009Z,13.32
2022-08-31T06:49:05.991Z,8.60
2022-08-31T06:51:37.819Z,6.60
2022-08-31T06:54:28.652Z,8.18
2022-08-31T06:56:59.592Z,4.75
2022-08-31T06:59:29.279Z,13.77
2022-08-31T07:02:00.506Z,6.38
2022-08-31T07:04:32.490Z,6.70
2022-08-31T07:06:59.081Z,9.20
2022-08-31T07:09:25.582Z,6.63
2022-08-31T07:11:53.673Z,6.43
2022-08-31T07:14:25.465Z,6.32
2022-08-31T07:19:22.233Z,6.28
2022-08-31T07:21:52.832Z,6.45
2022-08-31T07:24:24.230Z,5.38
2022-08-31T07:26:54.378Z,10.15
2022-08-31T07:29:25.648Z,16.90
2022-08-31T07:31:52.369Z,5.82
2022-08-31T07:34:31.117Z,4.65
2022-08-31T07:37:17.353Z,4.18
2022-08-31T07:40:07.173Z,6.80
2022-08-31T07:42:44.337Z,7.55
2022-08-31T07:45:22.614Z,4.25
2022-08-31T07:47:51.693Z,4.57
2022-08-31T07:50:19.546Z,5.78
2022-08-31T07:52:54.082Z,5.28
2022-08-31T07:55:23.028Z,7.47
2022-08-31T07:57:54.700Z,6.80
2022-08-31T08:00:28.339Z,8.70
2022-08-31T08:02:56.005Z,14.60
2022-08-31T08:05:27.644Z,8.35
2022-08-31T08:07:57.614Z,11.32
2022-08-31T08:10:27.582Z,7.57
2022-08-31T08:13:00.695Z,6.05
2022-08-31T08:15:35.516Z,6.28
2022-08-31T08:18:06.565Z,9.13
2022-08-31T08:20:38.403Z,15.65
2022-08-31T08:23:14.546Z,9.75
2022-08-31T08:25:43.138Z,10.43
2022-08-31T08:31:08.708Z,8.18
2022-08-31T08:33:37.842Z,6.90
2022-08-31T08:36:07.914Z,6.60
2022-08-31T08:38:38.888Z,10.13
2022-08-31T08:41:13.768Z,9.80
2022-08-31T08:43:44.467Z,13.55
2022-08-31T08:46:36.601Z,13.88
2022-08-31T08:49:22.424Z,11.23
2022-08-31T08:51:57.111Z,13.13
2022-08-31T08:54:31.926Z,14.15
2022-08-31T08:57:01.945Z,13.57
2022-08-31T08:59:29.169Z,11.77
2022-08-31T09:02:04.956Z,12.00
2022-08-31T09:05:03.520Z,9.18
2022-08-31T09:07:56.275Z,6.05
2022-08-31T09:10:28.229Z,12.75
2022-08-31T09:15:41.902Z,16.70
2022-08-31T09:18:40.812Z,18.48
2022-08-31T09:21:22.417Z,17.02
2022-08-31T09:23:54.990Z,11.07
2022-08-31T09:26:27.737Z,14.38
2022-08-31T09:28:54.673Z,9.13
2022-08-31T09:31:42.450Z,7.75
2022-08-31T09:34:28.942Z,8.13
2022-08-31T09:37:25.862Z,10.35
2022-08-31T09:39:54.390Z,29.08
2022-08-31T09:42:32.161Z,13.57
2022-08-31T09:45:08.748Z,7.72
2022-08-31T09:47:52.314Z,3.92
2022-08-31T09:50:32.262Z,7.10
2022-08-31T09:53:31.640Z,11.02
2022-08-31T09:56:15.403Z,10.00
2022-08-31T09:58:46.394Z,8.45
2022-08-31T10:01:19.012Z,16.03
2022-08-31T10:03:49.127Z,10.13
2022-08-31T10:06:26.274Z,7.20
2022-08-31T10:09:03.491Z,5.00
2022-08-31T10:11:32.651Z,19.23
2022-08-31T10:14:20.060Z,10.38
2022-08-31T10:16:52.407Z,9.52
2022-08-31T10:19:30.345Z,11.88
2022-08-31T10:22:00.049Z,10.63
2022-08-31T10:24:44.676Z,9.50
2022-08-31T10:27:40.315Z,11.40
2022-08-31T10:30:10.025Z,6.40
2022-08-31T10:32:42.077Z,11.13
2022-08-31T10:35:19.758Z,12.00
2022-08-31T10:38:08.326Z,10.18
2022-08-31T10:41:02.842Z,9.20
2022-08-31T10:43:38.875Z,13.35
2022-08-31T10:46:06.267Z,9.82
2022-08-31T10:48:53.035Z,12.00
2022-08-31T10:51:30.270Z,6.70
2022-08-31T10:54:24.651Z,11.73
2022-08-31T10:57:21.731Z,9.68
2022-08-31T11:00:07.500Z,9.60
2022-08-31T11:02:40.146Z,10.68
2022-08-31T11:05:14.693Z,10.45
2022-08-31T11:07:49.484Z,9.68
2022-08-31T11:10:51.674Z,16.08
2022-08-31T11:16:18.963Z,11.32
2022-08-31T11:19:00.270Z,14.10
2022-08-31T11:21:45.245Z,10.90
2022-08-31T11:24:42.731Z,12.18
2022-08-31T11:27:23.540Z,11.55
2022-08-31T11:29:59.130Z,11.15
2022-08-31T11:32:34.824Z,11.55
2022-08-31T11:35:10.016Z,10.75
2022-08-31T11:37:55.687Z,10.00
2022-08-31T11:40:44.974Z,12.88
2022-08-31T11:43:37.023Z,7.68
2022-08-31T11:48:55.335Z,9.67
2022-08-31T11:51:42.146Z,15.25
2022-08-31T11:54:42.936Z,11.02
2022-08-31T11:57:15.419Z,10.43
2022-08-31T11:59:45.931Z,12.82
2022-08-31T12:02:25.419Z,14.43
2022-08-31T12:05:03.185Z,21.02
2022-08-31T12:07:39.059Z,15.65
2022-08-31T12:10:34.181Z,11.93
2022-08-31T12:13:25.844Z,18.13
2022-08-31T12:16:14.892Z,17.88
2022-08-31T12:18:44.275Z,16.25
2022-08-31T12:22:15.685Z,29.10
2022-08-31T12:25:04.355Z,26.00
2022-08-31T12:27:49.284Z,17.25
2022-08-31T12:30:25.718Z,15.23
2022-08-31T12:33:04.485Z,12.13
2022-08-31T12:35:32.863Z,17.50
2022-08-31T12:38:16.277Z,13.48
2022-08-31T12:40:50.596Z,10.90
2022-08-31T12:43:39.848Z,12.45
2022-08-31T12:46:16.619Z,9.55
2022-08-31T12:49:16.744Z,10.68
2022-08-31T12:51:46.044Z,17.30
2022-08-31T12:54:46.690Z,11.63
2022-08-31T12:57:30.657Z,19.65
2022-08-31T13:00:17.773Z,10.80
2022-08-31T13:02:51.493Z,20.50
2022-08-31T13:05:29.876Z,13.52
2022-08-31T13:07:57.393Z,10.55
2022-08-31T13:10:29.104Z,9.55
2022-08-31T13:13:02.795Z,10.68
2022-08-31T13:15:39.658Z,11.85
2022-08-31T13:18:13.021Z,10.57
2022-08-31T13:20:42.855Z,12.13
2022-08-31T13:23:22.131Z,13.48
2022-08-31T13:26:01.510Z,11.18
2022-08-31T13:28:35.130Z,11.77
2022-08-31T13:31:05.581Z,9.52
2022-08-31T13:33:35.130Z,13.43
2022-08-31T13:36:34.617Z,10.95
2022-08-31T13:39:11.536Z,9.57
2022-08-31T13:41:54.753Z,10.95
2022-08-31T13:44:23.062Z,17.55
2022-08-31T13:47:00.151Z,12.77
2022-08-31T13:49:36.494Z,9.13
2022-08-31T13:52:14.649Z,13.95
2022-08-31T13:54:41.393Z,7.68
2022-08-31T13:57:10.615Z,8.90
2022-08-31T13:59:41.123Z,9.20
2022-08-31T14:02:16.579Z,10.10
2022-08-31T14:04:49.071Z,15.27
2022-08-31T14:07:21.647Z,12.77
2022-08-31T14:10:04.368Z,8.55
2022-08-31T14:12:37.184Z,13.43
2022-08-31T14:15:33.278Z,11.52
2022-08-31T14:18:24.454Z,11.60
2022-08-31T14:24:00.958Z,9.88
2022-08-31T14:26:33.599Z,12.52
2022-08-31T14:29:10.184Z,12.85
2022-08-31T14:31:37.582Z,10.70
2022-08-31T14:34:22.339Z,7.88
2022-08-31T14:37:06.845Z,9.57
2022-08-31T14:39:47.608Z,13.30
2022-08-31T14:42:21.495Z,8.10
2022-08-31T14:44:59.969Z,6.47
2022-08-31T14:47:29.117Z,13.65
2022-08-31T14:49:59.680Z,12.10
2022-08-31T14:52:28.495Z,10.40
2022-08-31T14:54:55.976Z,9.85
2022-08-31T14:57:25.305Z,10.98
2022-08-31T14:59:57.724Z,10.27
2022-08-31T15:02:31.127Z,7.18
2022-08-31T15:04:59.726Z,10.70
2022-08-31T15:07:32.049Z,9.52
2022-08-31T15:10:01.976Z,9.35
2022-08-31T15:12:28.935Z,8.07
2022-08-31T15:14:58.888Z,6.78
2022-08-31T15:17:30.410Z,17.65
2022-08-31T15:19:59.161Z,11.25
2022-08-31T15:22:26.638Z,12.73
2022-08-31T15:24:54.011Z,7.57
2022-08-31T15:27:20.770Z,9.05
2022-08-31T15:29:56.098Z,8.18
2022-08-31T15:32:22.601Z,8.82
2022-08-31T15:34:58.750Z,10.93
2022-08-31T15:37:31.900Z,17.05
2022-08-31T15:40:00.704Z,15.88
2022-08-31T15:42:31.349Z,13.70
2022-08-31T15:45:00.597Z,9.95
2022-08-31T15:47:53.572Z,13.75
2022-08-31T15:50:23.216Z,8.90
2022-08-31T15:52:52.123Z,15.35
2022-08-31T15:55:23.567Z,16.13
2022-08-31T15:57:54.305Z,14.10
2022-08-31T16:00:24.244Z,10.18
2022-08-31T16:02:57.499Z,15.55
2022-08-31T16:05:28.596Z,7.55
2022-08-31T16:07:55.741Z,9.98
2022-08-31T16:10:23.494Z,12.18
2022-08-31T16:12:52.080Z,23.52
2022-08-31T16:15:25.039Z,26.05
2022-08-31T16:17:55.945Z,10.88
2022-08-31T16:20:22.845Z,12.60
2022-08-31T16:22:49.327Z,14.45
2022-08-31T16:25:20.486Z,11.35
2022-08-31T16:27:47.321Z,15.63
2022-08-31T16:30:15.747Z,9.23
2022-08-31T16:32:42.315Z,13.77
2022-08-31T16:35:13.836Z,18.00
2022-08-31T16:37:40.278Z,21.27
2022-08-31T16:40:07.585Z,20.95
2022-08-31T16:42:59.043Z,11.60
2022-08-31T16:45:28.252Z,19.65
2022-08-31T16:48:14.870Z,37.33
2022-08-31T16:50:48.908Z,10.65
2022-08-31T16:53:18.169Z,12.90
2022-08-31T16:55:47.494Z,11.40
2022-08-31T16:58:24.865Z,11.68
2022-08-31T17:01:03.661Z,9.25
2022-08-31T17:03:32.447Z,9.40
2022-08-31T17:05:58.887Z,10.15
2022-08-31T17:08:25.426Z,12.82
2022-08-31T17:10:56.633Z,9.23
2022-08-31T17:13:26.892Z,16.48
2022-08-31T17:15:53.359Z,10.00
2022-08-31T17:18:23.055Z,10.63
2022-08-31T17:20:51.918Z,7.60
2022-08-31T17:23:25.789Z,12.02
2022-08-31T17:25:52.636Z,16.00
2022-08-31T17:28:23.327Z,11.23
2022-08-31T17:30:51.087Z,10.10
2022-08-31T17:33:17.566Z,10.63
2022-08-31T17:35:44.085Z,10.98
2022-08-31T17:38:10.741Z,8.15
2022-08-31T17:40:40.328Z,15.55
2022-08-31T17:43:09.368Z,9.75
2022-08-31T17:45:40.987Z,7.35
2022-08-31T17:48:07.548Z,5.65
2022-08-31T17:50:34.118Z,7.10
2022-08-31T17:53:00.842Z,5.25
2022-08-31T17:55:29.650Z,4.25
2022-08-31T17:57:58.133Z,5.57
2022-08-31T18:00:24.714Z,11.15
2022-08-31T18:02:51.183Z,11.70
2022-08-31T18:05:17.787Z,7.03
2022-08-31T18:07:44.427Z,3.53
2022-08-31T18:10:12.649Z,4.35
2022-08-31T18:12:41.660Z,3.25
2022-08-31T18:15:12.375Z,6.53
2022-08-31T18:17:38.932Z,6.20
2022-08-31T18:20:07.486Z,4.18
2022-08-31T18:22:34.043Z,4.07
2022-08-31T18:25:00.545Z,7.47
2022-08-31T18:27:30.093Z,4.82
2022-08-31T18:29:58.931Z,6.30
2022-08-31T18:32:27.057Z,4.25
2022-08-31T18:34:57.099Z,5.55
2022-08-31T18:37:26.163Z,7.38
2022-08-31T18:40:11.276Z,4.72
2022-08-31T18:42:57.316Z,4.55
2022-08-31T18:45:25.017Z,4.13
2022-08-31T18:50:47.275Z,5.53
2022-08-31T18:53:29.232Z,6.32
2022-08-31T18:56:14.003Z,6.53
2022-08-31T18:58:42.035Z,6.10
2022-08-31T19:01:11.251Z,5.90
2022-08-31T19:03:39.164Z,8.65
2022-08-31T19:06:07.903Z,5.22
2022-08-31T19:08:34.890Z,6.18
2022-08-31T19:11:01.466Z,11.98
2022-08-31T19:13:31.566Z,13.52
2022-08-31T19:16:10.682Z,8.15
2022-08-31T19:18:41.897Z,13.48
2022-08-31T19:21:27.015Z,9.38
2022-08-31T19:23:54.770Z,8.48
2022-08-31T19:26:27.568Z,6.15
2022-08-31T19:28:55.523Z,9.73
2022-08-31T19:31:24.285Z,5.80
2022-08-31T19:33:56.555Z,5.60
2022-08-31T19:36:24.426Z,3.83
2022-08-31T19:38:51.790Z,3.78
2022-08-31T19:41:23.862Z,5.28
2022-08-31T19:43:56.056Z,4.70
2022-08-31T19:46:32.889Z,6.20
2022-08-31T19:49:00.242Z,4.05
2022-08-31T19:51:29.081Z,5.88
2022-08-31T19:53:56.539Z,3.92
2022-08-31T19:56:27.485Z,4.00
2022-08-31T19:58:56.445Z,3.30
2022-08-31T20:01:26.016Z,5.20
2022-08-31T20:03:56.007Z,3.78
2022-08-31T20:06:25.624Z,5.40
2022-08-31T20:08:53.920Z,6.68
2022-08-31T20:11:24.811Z,5.03
2022-08-31T20:13:51.583Z,3.97
2022-08-31T20:16:22.089Z,5.10
2022-08-31T20:18:53.263Z,4.43
2022-08-31T20:21:24.195Z,3.15
2022-08-31T20:23:56.876Z,4.82
2022-08-31T20:26:30.429Z,4.25
2022-08-31T20:29:05.512Z,3.95
2022-08-31T20:31:37.204Z,3.10
2022-08-31T20:34:03.964Z,4.30
2022-08-31T20:36:39.751Z,4.93
2022-08-31T20:39:14.858Z,2.83
2022-08-31T20:41:47.080Z,4.82
2022-08-31T20:44:28.867Z,2.92
2022-08-31T20:47:28.827Z,2.78
2022-08-31T20:49:58.312Z,4.90
2022-08-31T20:52:28.210Z,2.72
2022-08-31T20:55:01.827Z,2.35
2022-08-31T20:57:33.002Z,3.63
2022-08-31T21:00:02.919Z,2.55
2022-08-31T21:02:31.693Z,3.30
2022-08-31T21:05:10.279Z,2.70
2022-08-31T21:07:45.319Z,2.53
2022-08-31T21:10:11.800Z,2.85
2022-08-31T21:12:38.292Z,2.72
2022-08-31T21:15:05.695Z,2.67
2022-08-31T21:17:32.305Z,3.65
2022-08-31T21:20:04.827Z,2.00
2022-08-31T21:22:31.550Z,4.57
2022-08-31T21:25:02.095Z,2.63
2022-08-31T21:27:29.451Z,2.13
2022-08-31T21:29:58.181Z,3.05
2022-08-31T21:32:24.717Z,5.10
2022-08-31T21:34:55.911Z,3.58
2022-08-31T21:37:24.931Z,2.40
2022-08-31T21:39:57.169Z,2.50
2022-08-31T21:42:24.302Z,5.32
2022-08-31T21:44:50.841Z,2.65
2022-08-31T21:47:17.453Z,1.88
2022-08-31T21:49:44.502Z,3.58
2022-08-31T21:52:12.436Z,3.20
2022-08-31T21:54:42.542Z,4.68
2022-08-31T21:57:10.643Z,4.03
2022-08-31T21:59:37.334Z,4.03
2022-08-31T22:02:12.654Z,2.38
2022-08-31T22:04:42.593Z,4.85
2022-08-31T22:07:10.066Z,3.58
2022-08-31T22:09:37.244Z,3.05
2022-08-31T22:12:07.446Z,2.22
2022-08-31T22:14:37.166Z,2.05
2022-08-31T22:17:05.655Z,2.92
2022-08-31T22:19:36.087Z,2.10
2022-08-31T22:22:05.722Z,3.60
2022-08-31T22:24:34.173Z,2.20
2022-08-31T22:27:04.864Z,8.25
2022-08-31T22:29:33.348Z,2.47
2022-08-31T22:32:08.596Z,3.97
2022-08-31T22:34:36.481Z,3.55
2022-08-31T22:37:04.484Z,2.67
2022-08-31T22:39:31.300Z,3.00
2022-08-31T22:41:59.221Z,2.20
2022-08-31T22:44:27.965Z,6.45
2022-08-31T22:46:56.373Z,9.27
2022-08-31T22:49:23.386Z,4.35
2022-08-31T22:51:49.941Z,2.58
2022-08-31T22:54:20.771Z,3.80
2022-08-31T22:56:48.362Z,6.75
2022-08-31T22:59:22.932Z,3.08
2022-08-31T23:01:54.832Z,3.33
2022-08-31T23:04:24.487Z,2.25
2022-08-31T23:06:52.467Z,5.57
2022-08-31T23:09:21.347Z,2.80
2022-08-31T23:11:49.578Z,4.05
2022-08-31T23:14:16.265Z,7.78
2022-08-31T23:16:48.519Z,5.68
2022-08-31T23:19:17.589Z,2.95
2022-08-31T23:21:52.695Z,10.27
2022-08-31T23:24:24.567Z,3.55
2022-08-31T23:26:53.842Z,4.90
2022-08-31T23:29:21.652Z,3.65
2022-08-31T23:31:48.704Z,1.98
2022-08-31T23:34:17.262Z,3.45
2022-08-31T23:36:48.872Z,4.20
2022-08-31T23:39:21.107Z,5.10
2022-08-31T23:41:49.914Z,6.88
2022-08-31T23:44:19.423Z,4.75
2022-08-31T23:46:46.342Z,4.75
2022-08-31T23:49:14.710Z,3.58
2022-08-31T23:51:41.220Z,2.35
2022-08-31T23:54:08.104Z,3.08
2022-08-31T23:56:43.154Z,1.88
2022-08-31T23:59:13.178Z,5.72
